sensor_id;sensor_type;location;lat;lon;timestamp;temperature;humidity
9987;DHT22;5033;46.310;11.214;2022-11-15T00:01:07;7.90;99.90
9987;DHT22;5033;46.310;11.214;2022-11-15T00:03:34;7.90;99.90
9987;DHT22;5033;46.310;11.214;2022-11-15T00:06:03;7.90;99.90
9987;DHT22;5033;46.310;11.214;2022-11-15T00:08:31;7.90;99.90
9987;DHT22;5033;46.310;11.214;2022-11-15T00:11:00;7.90;99.90
9987;DHT22;5033;46.310;11.214;2022-11-15T00:13:30;7.90;99.90
9987;DHT22;5033;46.310;11.214;2022-11-15T00:15:58;7.90;99.90
9987;DHT22;5033;46.310;11.214;2022-11-15T00:18:27;8.00;99.90
9987;DHT22;5033;46.310;11.214;2022-11-15T00:20:55;8.00;99.90
9987;DHT22;5033;46.310;11.214;2022-11-15T00:23:22;8.00;99.90
9987;DHT22;5033;46.310;11.214;2022-11-15T00:25:55;8.00;99.90
9987;DHT22;5033;46.310;11.214;2022-11-15T00:28:23;8.00;99.90
9987;DHT22;5033;46.310;11.214;2022-11-15T00:30:52;8.00;99.90
9987;DHT22;5033;46.310;11.214;2022-11-15T00:33:19;7.90;99.90
9987;DHT22;5033;46.310;11.214;2022-11-15T00:35:47;7.90;99.90
9987;DHT22;5033;46.310;11.214;2022-11-15T00:38:14;7.90;99.90
9987;DHT22;5033;46.310;11.214;2022-11-15T00:40:41;7.80;99.90
9987;DHT22;5033;46.310;11.214;2022-11-15T00:43:09;7.80;99.90
9987;DHT22;5033;46.310;11.214;2022-11-15T00:45:36;7.80;99.90
9987;DHT22;5033;46.310;11.214;2022-11-15T00:48:06;7.80;99.90
9987;DHT22;5033;46.310;11.214;2022-11-15T00:50:34;7.90;99.90
9987;DHT22;5033;46.310;11.214;2022-11-15T00:53:01;7.90;99.90
9987;DHT22;5033;46.310;11.214;2022-11-15T00:55:29;7.90;99.90
9987;DHT22;5033;46.310;11.214;2022-11-15T00:57:56;7.90;99.90
9987;DHT22;5033;46.310;11.214;2022-11-15T01:00:24;7.90;99.90
9987;DHT22;5033;46.310;11.214;2022-11-15T01:02:51;7.90;99.90
9987;DHT22;5033;46.310;11.214;2022-11-15T01:05:20;7.90;99.90
9987;DHT22;5033;46.310;11.214;2022-11-15T01:07:51;7.80;99.90
9987;DHT22;5033;46.310;11.214;2022-11-15T01:10:19;7.80;99.90
9987;DHT22;5033;46.310;11.214;2022-11-15T01:12:46;7.80;99.90
9987;DHT22;5033;46.310;11.214;2022-11-15T01:15:14;7.80;99.90
9987;DHT22;5033;46.310;11.214;2022-11-15T01:17:43;7.90;99.90
9987;DHT22;5033;46.310;11.214;2022-11-15T01:20:11;7.90;99.90
9987;DHT22;5033;46.310;11.214;2022-11-15T01:22:40;7.80;99.90
9987;DHT22;5033;46.310;11.214;2022-11-15T01:25:07;7.70;99.90
9987;DHT22;5033;46.310;11.214;2022-11-15T01:27:35;7.60;99.90
9987;DHT22;5033;46.310;11.214;2022-11-15T01:30:03;7.70;99.90
9987;DHT22;5033;46.310;11.214;2022-11-15T01:32:31;7.60;99.90
9987;DHT22;5033;46.310;11.214;2022-11-15T01:34:59;7.60;99.90
9987;DHT22;5033;46.310;11.214;2022-11-15T01:37:26;7.60;99.90
9987;DHT22;5033;46.310;11.214;2022-11-15T01:39:55;7.60;99.90
9987;DHT22;5033;46.310;11.214;2022-11-15T01:42:22;7.60;99.90
9987;DHT22;5033;46.310;11.214;2022-11-15T01:44:51;7.70;99.90
9987;DHT22;5033;46.310;11.214;2022-11-15T01:47:20;7.70;99.90
9987;DHT22;5033;46.310;11.214;2022-11-15T01:49:54;7.70;99.90
9987;DHT22;5033;46.310;11.214;2022-11-15T01:52:25;7.70;99.90
9987;DHT22;5033;46.310;11.214;2022-11-15T01:54:58;7.60;99.90
9987;DHT22;5033;46.310;11.214;2022-11-15T01:57:26;7.50;99.90
9987;DHT22;5033;46.310;11.214;2022-11-15T01:59:54;7.50;99.90
9987;DHT22;5033;46.310;11.214;2022-11-15T02:02:21;7.50;99.90
9987;DHT22;5033;46.310;11.214;2022-11-15T02:04:48;7.60;99.90
9987;DHT22;5033;46.310;11.214;2022-11-15T02:07:17;7.60;99.90
9987;DHT22;5033;46.310;11.214;2022-11-15T02:09:45;7.70;99.90
9987;DHT22;5033;46.310;11.214;2022-11-15T02:12:16;7.70;99.90
9987;DHT22;5033;46.310;11.214;2022-11-15T02:14:47;7.70;99.90
9987;DHT22;5033;46.310;11.214;2022-11-15T02:17:31;7.80;99.90
9987;DHT22;5033;46.310;11.214;2022-11-15T02:20:27;7.80;99.90
9987;DHT22;5033;46.310;11.214;2022-11-15T02:23:26;7.80;99.90
9987;DHT22;5033;46.310;11.214;2022-11-15T02:26:13;7.80;99.90
9987;DHT22;5033;46.310;11.214;2022-11-15T02:28:56;7.60;99.90
9987;DHT22;5033;46.310;11.214;2022-11-15T02:31:29;7.50;99.90
9987;DHT22;5033;46.310;11.214;2022-11-15T02:34:05;7.50;99.90
9987;DHT22;5033;46.310;11.214;2022-11-15T02:36:41;7.50;99.90
9987;DHT22;5033;46.310;11.214;2022-11-15T02:39:17;7.40;99.90
9987;DHT22;5033;46.310;11.214;2022-11-15T02:41:49;7.50;99.90
9987;DHT22;5033;46.310;11.214;2022-11-15T02:44:23;7.50;99.90
9987;DHT22;5033;46.310;11.214;2022-11-15T02:46:54;7.60;99.90
9987;DHT22;5033;46.310;11.214;2022-11-15T02:49:45;7.60;99.90
9987;DHT22;5033;46.310;11.214;2022-11-15T02:52:15;7.60;99.90
9987;DHT22;5033;46.310;11.214;2022-11-15T02:54:42;7.60;99.90
9987;DHT22;5033;46.310;11.214;2022-11-15T02:57:14;7.70;99.90
9987;DHT22;5033;46.310;11.214;2022-11-15T03:00:04;7.70;99.90
9987;DHT22;5033;46.310;11.214;2022-11-15T03:05:34;7.70;99.90
9987;DHT22;5033;46.310;11.214;2022-11-15T03:08:06;7.70;99.90
9987;DHT22;5033;46.310;11.214;2022-11-15T03:10:42;7.70;99.90
9987;DHT22;5033;46.310;11.214;2022-11-15T03:13:23;7.70;99.90
9987;DHT22;5033;46.310;11.214;2022-11-15T03:15:56;7.70;99.90
9987;DHT22;5033;46.310;11.214;2022-11-15T03:18:30;7.70;99.90
9987;DHT22;5033;46.310;11.214;2022-11-15T03:21:01;7.70;99.90
9987;DHT22;5033;46.310;11.214;2022-11-15T03:23:31;7.60;99.90
9987;DHT22;5033;46.310;11.214;2022-11-15T03:25:58;7.60;99.90
9987;DHT22;5033;46.310;11.214;2022-11-15T03:28:32;7.60;99.90
9987;DHT22;5033;46.310;11.214;2022-11-15T03:31:02;7.60;99.90
9987;DHT22;5033;46.310;11.214;2022-11-15T03:33:53;7.60;99.90
9987;DHT22;5033;46.310;11.214;2022-11-15T03:36:22;7.50;99.90
9987;DHT22;5033;46.310;11.214;2022-11-15T03:38:52;7.50;99.90
9987;DHT22;5033;46.310;11.214;2022-11-15T03:41:24;7.50;99.90
9987;DHT22;5033;46.310;11.214;2022-11-15T03:43:56;7.50;99.90
9987;DHT22;5033;46.310;11.214;2022-11-15T03:46:31;7.50;99.90
9987;DHT22;5033;46.310;11.214;2022-11-15T03:49:07;7.50;99.90
9987;DHT22;5033;46.310;11.214;2022-11-15T03:51:35;7.50;99.90
9987;DHT22;5033;46.310;11.214;2022-11-15T03:54:03;7.50;99.90
9987;DHT22;5033;46.310;11.214;2022-11-15T03:56:30;7.40;99.90
9987;DHT22;5033;46.310;11.214;2022-11-15T03:58:58;7.40;99.90
9987;DHT22;5033;46.310;11.214;2022-11-15T04:01:25;7.40;99.90
9987;DHT22;5033;46.310;11.214;2022-11-15T04:03:52;7.40;99.90
9987;DHT22;5033;46.310;11.214;2022-11-15T04:06:20;7.40;99.90
9987;DHT22;5033;46.310;11.214;2022-11-15T04:08:47;7.40;99.90
9987;DHT22;5033;46.310;11.214;2022-11-15T04:11:14;7.50;99.90
9987;DHT22;5033;46.310;11.214;2022-11-15T04:13:41;7.50;99.90
9987;DHT22;5033;46.310;11.214;2022-11-15T04:16:08;7.40;99.90
9987;DHT22;5033;46.310;11.214;2022-11-15T04:18:36;7.40;99.90
9987;DHT22;5033;46.310;11.214;2022-11-15T04:21:03;7.40;99.90
9987;DHT22;5033;46.310;11.214;2022-11-15T04:23:49;7.40;99.90
9987;DHT22;5033;46.310;11.214;2022-11-15T04:26:33;7.40;99.90
9987;DHT22;5033;46.310;11.214;2022-11-15T04:29:00;7.40;99.90
9987;DHT22;5033;46.310;11.214;2022-11-15T04:31:45;7.30;99.90
9987;DHT22;5033;46.310;11.214;2022-11-15T04:34:12;7.30;99.90
9987;DHT22;5033;46.310;11.214;2022-11-15T04:36:39;7.20;99.90
9987;DHT22;5033;46.310;11.214;2022-11-15T04:39:25;7.10;99.90
9987;DHT22;5033;46.310;11.214;2022-11-15T04:41:52;7.10;99.90
9987;DHT22;5033;46.310;11.214;2022-11-15T04:44:19;7.10;99.90
9987;DHT22;5033;46.310;11.214;2022-11-15T04:46:46;7.10;99.90
9987;DHT22;5033;46.310;11.214;2022-11-15T04:49:13;7.00;99.90
9987;DHT22;5033;46.310;11.214;2022-11-15T04:51:40;7.00;99.90
9987;DHT22;5033;46.310;11.214;2022-11-15T04:54:07;7.00;99.90
9987;DHT22;5033;46.310;11.214;2022-11-15T04:56:35;6.90;99.90
9987;DHT22;5033;46.310;11.214;2022-11-15T04:59:03;6.90;99.90
9987;DHT22;5033;46.310;11.214;2022-11-15T05:01:30;6.90;99.90
9987;DHT22;5033;46.310;11.214;2022-11-15T05:03:57;6.90;99.90
9987;DHT22;5033;46.310;11.214;2022-11-15T05:06:41;7.00;99.90
9987;DHT22;5033;46.310;11.214;2022-11-15T05:09:08;6.90;99.90
9987;DHT22;5033;46.310;11.214;2022-11-15T05:11:37;6.90;99.90
9987;DHT22;5033;46.310;11.214;2022-11-15T05:14:04;6.90;99.90
9987;DHT22;5033;46.310;11.214;2022-11-15T05:16:31;6.90;99.90
9987;DHT22;5033;46.310;11.214;2022-11-15T05:18:58;6.90;99.90
9987;DHT22;5033;46.310;11.214;2022-11-15T05:21:25;6.90;99.90
9987;DHT22;5033;46.310;11.214;2022-11-15T05:23:52;6.90;99.90
9987;DHT22;5033;46.310;11.214;2022-11-15T05:26:19;6.90;99.90
9987;DHT22;5033;46.310;11.214;2022-11-15T05:28:52;6.90;99.90
9987;DHT22;5033;46.310;11.214;2022-11-15T05:31:20;7.00;99.90
9987;DHT22;5033;46.310;11.214;2022-11-15T05:33:49;7.00;99.90
9987;DHT22;5033;46.310;11.214;2022-11-15T05:36:21;7.00;99.90
9987;DHT22;5033;46.310;11.214;2022-11-15T05:38:51;7.00;99.90
9987;DHT22;5033;46.310;11.214;2022-11-15T05:41:21;7.10;99.90
9987;DHT22;5033;46.310;11.214;2022-11-15T05:43:51;7.10;99.90
9987;DHT22;5033;46.310;11.214;2022-11-15T05:46:19;7.00;99.90
9987;DHT22;5033;46.310;11.214;2022-11-15T05:48:49;7.00;99.90
9987;DHT22;5033;46.310;11.214;2022-11-15T05:51:19;7.00;99.90
9987;DHT22;5033;46.310;11.214;2022-11-15T05:53:48;7.00;99.90
9987;DHT22;5033;46.310;11.214;2022-11-15T05:56:16;7.00;99.90
9987;DHT22;5033;46.310;11.214;2022-11-15T05:58:43;6.90;99.90
9987;DHT22;5033;46.310;11.214;2022-11-15T06:01:11;6.90;99.90
9987;DHT22;5033;46.310;11.214;2022-11-15T06:03:39;7.00;99.90
9987;DHT22;5033;46.310;11.214;2022-11-15T06:06:06;7.00;99.90
9987;DHT22;5033;46.310;11.214;2022-11-15T06:08:33;7.10;99.90
9987;DHT22;5033;46.310;11.214;2022-11-15T06:11:04;7.10;99.90
9987;DHT22;5033;46.310;11.214;2022-11-15T06:13:32;7.00;99.90
9987;DHT22;5033;46.310;11.214;2022-11-15T06:15:59;7.00;99.90
9987;DHT22;5033;46.310;11.214;2022-11-15T06:18:31;7.00;99.90
9987;DHT22;5033;46.310;11.214;2022-11-15T06:20:59;6.90;99.90
9987;DHT22;5033;46.310;11.214;2022-11-15T06:23:26;6.90;99.90
9987;DHT22;5033;46.310;11.214;2022-11-15T06:25:57;6.90;99.90
9987;DHT22;5033;46.310;11.214;2022-11-15T06:28:24;6.90;99.90
9987;DHT22;5033;46.310;11.214;2022-11-15T06:30:51;6.90;99.90
9987;DHT22;5033;46.310;11.214;2022-11-15T06:33:18;6.90;99.90
9987;DHT22;5033;46.310;11.214;2022-11-15T06:35:48;6.90;99.90
9987;DHT22;5033;46.310;11.214;2022-11-15T06:38:15;6.90;99.90
9987;DHT22;5033;46.310;11.214;2022-11-15T06:40:42;6.90;99.90
9987;DHT22;5033;46.310;11.214;2022-11-15T06:43:10;7.10;99.90
9987;DHT22;5033;46.310;11.214;2022-11-15T06:45:37;7.20;99.90
9987;DHT22;5033;46.310;11.214;2022-11-15T06:48:05;7.30;99.90
9987;DHT22;5033;46.310;11.214;2022-11-15T06:50:33;7.40;99.90
9987;DHT22;5033;46.310;11.214;2022-11-15T06:53:04;7.40;99.90
9987;DHT22;5033;46.310;11.214;2022-11-15T06:55:32;7.50;99.90
9987;DHT22;5033;46.310;11.214;2022-11-15T06:57:59;7.50;99.90
9987;DHT22;5033;46.310;11.214;2022-11-15T07:00:26;7.50;99.90
9987;DHT22;5033;46.310;11.214;2022-11-15T07:02:53;7.50;99.90
9987;DHT22;5033;46.310;11.214;2022-11-15T07:05:21;7.50;99.90
9987;DHT22;5033;46.310;11.214;2022-11-15T07:07:52;7.50;99.90
9987;DHT22;5033;46.310;11.214;2022-11-15T07:10:22;7.50;99.90
9987;DHT22;5033;46.310;11.214;2022-11-15T07:12:50;7.60;99.90
9987;DHT22;5033;46.310;11.214;2022-11-15T07:15:20;7.60;99.90
9987;DHT22;5033;46.310;11.214;2022-11-15T07:17:47;7.60;99.90
9987;DHT22;5033;46.310;11.214;2022-11-15T07:20:15;7.60;99.90
9987;DHT22;5033;46.310;11.214;2022-11-15T07:22:42;7.70;99.90
9987;DHT22;5033;46.310;11.214;2022-11-15T07:25:11;7.80;99.90
9987;DHT22;5033;46.310;11.214;2022-11-15T07:27:40;7.90;99.90
9987;DHT22;5033;46.310;11.214;2022-11-15T07:30:08;7.90;99.90
9987;DHT22;5033;46.310;11.214;2022-11-15T07:32:35;7.90;99.90
9987;DHT22;5033;46.310;11.214;2022-11-15T07:35:03;7.90;99.90
9987;DHT22;5033;46.310;11.214;2022-11-15T07:37:30;7.90;99.90
9987;DHT22;5033;46.310;11.214;2022-11-15T07:39:58;7.90;99.90
9987;DHT22;5033;46.310;11.214;2022-11-15T07:42:25;7.90;99.90
9987;DHT22;5033;46.310;11.214;2022-11-15T07:45:11;8.10;99.90
9987;DHT22;5033;46.310;11.214;2022-11-15T07:47:38;8.60;99.90
9987;DHT22;5033;46.310;11.214;2022-11-15T07:50:06;9.20;99.90
9987;DHT22;5033;46.310;11.214;2022-11-15T07:52:33;9.90;99.90
9987;DHT22;5033;46.310;11.214;2022-11-15T07:55:00;10.50;99.90
9987;DHT22;5033;46.310;11.214;2022-11-15T07:57:29;11.10;99.90
9987;DHT22;5033;46.310;11.214;2022-11-15T07:59:56;11.90;99.90
9987;DHT22;5033;46.310;11.214;2022-11-15T08:02:25;12.80;99.90
9987;DHT22;5033;46.310;11.214;2022-11-15T08:04:52;13.40;99.90
9987;DHT22;5033;46.310;11.214;2022-11-15T08:07:19;14.00;99.90
9987;DHT22;5033;46.310;11.214;2022-11-15T08:09:46;14.50;99.90
9987;DHT22;5033;46.310;11.214;2022-11-15T08:12:14;14.80;99.90
9987;DHT22;5033;46.310;11.214;2022-11-15T08:14:41;15.00;99.90
9987;DHT22;5033;46.310;11.214;2022-11-15T08:17:08;15.40;99.90
9987;DHT22;5033;46.310;11.214;2022-11-15T08:19:37;15.90;99.90
9987;DHT22;5033;46.310;11.214;2022-11-15T08:22:04;16.30;99.90
9987;DHT22;5033;46.310;11.214;2022-11-15T08:24:32;16.50;99.90
9987;DHT22;5033;46.310;11.214;2022-11-15T08:26:59;16.50;99.90
9987;DHT22;5033;46.310;11.214;2022-11-15T08:29:27;16.50;99.90
9987;DHT22;5033;46.310;11.214;2022-11-15T08:31:54;15.90;99.90
9987;DHT22;5033;46.310;11.214;2022-11-15T08:34:22;15.30;99.90
9987;DHT22;5033;46.310;11.214;2022-11-15T08:36:50;14.80;99.90
9987;DHT22;5033;46.310;11.214;2022-11-15T08:39:18;14.40;99.90
9987;DHT22;5033;46.310;11.214;2022-11-15T08:41:45;14.30;99.90
9987;DHT22;5033;46.310;11.214;2022-11-15T08:44:13;14.20;99.90
9987;DHT22;5033;46.310;11.214;2022-11-15T08:46:40;14.10;99.90
9987;DHT22;5033;46.310;11.214;2022-11-15T08:49:07;14.00;99.90
9987;DHT22;5033;46.310;11.214;2022-11-15T08:51:35;13.80;99.90
9987;DHT22;5033;46.310;11.214;2022-11-15T08:54:03;13.60;99.90
9987;DHT22;5033;46.310;11.214;2022-11-15T08:56:31;13.40;99.90
9987;DHT22;5033;46.310;11.214;2022-11-15T08:58:58;13.30;99.90
9987;DHT22;5033;46.310;11.214;2022-11-15T09:01:25;13.50;99.90
9987;DHT22;5033;46.310;11.214;2022-11-15T09:03:52;14.20;99.90
9987;DHT22;5033;46.310;11.214;2022-11-15T09:06:20;14.20;99.90
9987;DHT22;5033;46.310;11.214;2022-11-15T09:08:47;14.50;99.90
9987;DHT22;5033;46.310;11.214;2022-11-15T09:11:16;14.50;99.90
9987;DHT22;5033;46.310;11.214;2022-11-15T09:13:45;15.50;99.90
9987;DHT22;5033;46.310;11.214;2022-11-15T09:16:13;15.00;99.90
9987;DHT22;5033;46.310;11.214;2022-11-15T09:18:40;14.70;99.90
9987;DHT22;5033;46.310;11.214;2022-11-15T09:21:08;16.30;99.90
9987;DHT22;5033;46.310;11.214;2022-11-15T09:23:36;18.40;99.90
9987;DHT22;5033;46.310;11.214;2022-11-15T09:26:05;19.20;99.90
9987;DHT22;5033;46.310;11.214;2022-11-15T09:28:34;19.10;99.90
9987;DHT22;5033;46.310;11.214;2022-11-15T09:31:03;18.60;99.90
9987;DHT22;5033;46.310;11.214;2022-11-15T09:33:31;18.00;99.90
9987;DHT22;5033;46.310;11.214;2022-11-15T09:36:00;17.60;99.90
9987;DHT22;5033;46.310;11.214;2022-11-15T09:38:28;17.00;99.90
9987;DHT22;5033;46.310;11.214;2022-11-15T09:44:17;16.90;99.90
9987;DHT22;5033;46.310;11.214;2022-11-15T09:46:51;16.80;99.90
9987;DHT22;5033;46.310;11.214;2022-11-15T09:49:22;16.60;99.90
9987;DHT22;5033;46.310;11.214;2022-11-15T09:51:53;16.50;99.90
9987;DHT22;5033;46.310;11.214;2022-11-15T09:54:26;16.30;99.90
9987;DHT22;5033;46.310;11.214;2022-11-15T09:56:56;16.50;99.90
9987;DHT22;5033;46.310;11.214;2022-11-15T09:59:40;16.40;99.90
9987;DHT22;5033;46.310;11.214;2022-11-15T10:02:19;16.30;99.90
9987;DHT22;5033;46.310;11.214;2022-11-15T10:04:51;16.50;99.90
9987;DHT22;5033;46.310;11.214;2022-11-15T10:07:25;16.70;99.90
9987;DHT22;5033;46.310;11.214;2022-11-15T10:09:56;16.70;99.90
9987;DHT22;5033;46.310;11.214;2022-11-15T10:12:26;16.60;99.90
9987;DHT22;5033;46.310;11.214;2022-11-15T10:15:00;16.20;99.90
9987;DHT22;5033;46.310;11.214;2022-11-15T10:20:25;16.40;99.90
9987;DHT22;5033;46.310;11.214;2022-11-15T10:22:55;16.80;99.90
9987;DHT22;5033;46.310;11.214;2022-11-15T10:25:24;17.00;99.90
9987;DHT22;5033;46.310;11.214;2022-11-15T10:27:57;16.90;99.90
9987;DHT22;5033;46.310;11.214;2022-11-15T10:30:33;16.20;99.90
9987;DHT22;5033;46.310;11.214;2022-11-15T10:36:20;15.00;99.90
9987;DHT22;5033;46.310;11.214;2022-11-15T10:38:56;15.00;99.90
9987;DHT22;5033;46.310;11.214;2022-11-15T10:41:31;15.10;99.90
9987;DHT22;5033;46.310;11.214;2022-11-15T10:44:25;14.60;99.90
9987;DHT22;5033;46.310;11.214;2022-11-15T10:47:24;14.00;99.90
9987;DHT22;5033;46.310;11.214;2022-11-15T10:49:55;13.50;99.90
9987;DHT22;5033;46.310;11.214;2022-11-15T10:52:23;13.40;99.90
9987;DHT22;5033;46.310;11.214;2022-11-15T10:54:54;13.20;99.90
9987;DHT22;5033;46.310;11.214;2022-11-15T10:57:23;13.00;99.90
9987;DHT22;5033;46.310;11.214;2022-11-15T10:59:53;12.70;99.90
9987;DHT22;5033;46.310;11.214;2022-11-15T11:02:28;12.50;99.90
9987;DHT22;5033;46.310;11.214;2022-11-15T11:04:57;12.50;99.90
9987;DHT22;5033;46.310;11.214;2022-11-15T11:07:26;12.30;99.90
9987;DHT22;5033;46.310;11.214;2022-11-15T11:09:58;12.20;99.90
9987;DHT22;5033;46.310;11.214;2022-11-15T11:12:28;12.20;99.90
9987;DHT22;5033;46.310;11.214;2022-11-15T11:14:58;12.20;99.90
9987;DHT22;5033;46.310;11.214;2022-11-15T11:17:36;12.30;99.90
9987;DHT22;5033;46.310;11.214;2022-11-15T11:20:17;12.30;99.90
9987;DHT22;5033;46.310;11.214;2022-11-15T11:22:56;12.20;99.90
9987;DHT22;5033;46.310;11.214;2022-11-15T11:25:33;12.10;99.90
9987;DHT22;5033;46.310;11.214;2022-11-15T11:28:26;12.20;99.90
9987;DHT22;5033;46.310;11.214;2022-11-15T11:31:08;12.20;99.90
9987;DHT22;5033;46.310;11.214;2022-11-15T11:33:44;12.30;99.90
9987;DHT22;5033;46.310;11.214;2022-11-15T11:36:21;12.20;99.90
9987;DHT22;5033;46.310;11.214;2022-11-15T11:38:58;12.20;99.90
9987;DHT22;5033;46.310;11.214;2022-11-15T11:41:40;12.10;99.90
9987;DHT22;5033;46.310;11.214;2022-11-15T11:44:18;12.10;99.90
9987;DHT22;5033;46.310;11.214;2022-11-15T11:46:55;12.20;99.90
9987;DHT22;5033;46.310;11.214;2022-11-15T11:49:32;12.10;99.90
9987;DHT22;5033;46.310;11.214;2022-11-15T11:52:05;12.20;99.90
9987;DHT22;5033;46.310;11.214;2022-11-15T11:54:43;12.20;99.90
9987;DHT22;5033;46.310;11.214;2022-11-15T11:57:17;12.30;99.90
9987;DHT22;5033;46.310;11.214;2022-11-15T11:59:51;12.30;99.90
9987;DHT22;5033;46.310;11.214;2022-11-15T12:02:27;12.30;99.90
9987;DHT22;5033;46.310;11.214;2022-11-15T12:05:03;12.30;99.90
9987;DHT22;5033;46.310;11.214;2022-11-15T12:07:36;12.20;99.90
9987;DHT22;5033;46.310;11.214;2022-11-15T12:10:14;12.00;99.90
9987;DHT22;5033;46.310;11.214;2022-11-15T12:12:49;11.80;99.90
9987;DHT22;5033;46.310;11.214;2022-11-15T12:15:20;11.70;99.90
9987;DHT22;5033;46.310;11.214;2022-11-15T12:17:48;11.50;99.90
9987;DHT22;5033;46.310;11.214;2022-11-15T12:20:20;11.50;99.90
9987;DHT22;5033;46.310;11.214;2022-11-15T12:22:54;11.60;99.90
9987;DHT22;5033;46.310;11.214;2022-11-15T12:25:27;11.60;99.90
9987;DHT22;5033;46.310;11.214;2022-11-15T12:27:59;11.60;99.90
9987;DHT22;5033;46.310;11.214;2022-11-15T12:30:50;11.60;99.90
9987;DHT22;5033;46.310;11.214;2022-11-15T12:33:30;11.40;99.90
9987;DHT22;5033;46.310;11.214;2022-11-15T12:36:01;11.30;99.90
9987;DHT22;5033;46.310;11.214;2022-11-15T12:38:52;11.20;99.90
9987;DHT22;5033;46.310;11.214;2022-11-15T12:41:21;11.20;99.90
9987;DHT22;5033;46.310;11.214;2022-11-15T12:43:49;11.10;99.90
9987;DHT22;5033;46.310;11.214;2022-11-15T12:46:22;11.10;99.90
9987;DHT22;5033;46.310;11.214;2022-11-15T12:48:56;11.10;99.90
9987;DHT22;5033;46.310;11.214;2022-11-15T12:52:05;11.10;99.90
9987;DHT22;5033;46.310;11.214;2022-11-15T12:55:29;11.10;99.90
9987;DHT22;5033;46.310;11.214;2022-11-15T12:58:26;11.10;99.90
9987;DHT22;5033;46.310;11.214;2022-11-15T13:00:53;11.00;99.90
9987;DHT22;5033;46.310;11.214;2022-11-15T13:03:26;10.90;99.90
9987;DHT22;5033;46.310;11.214;2022-11-15T13:06:01;10.80;99.90
9987;DHT22;5033;46.310;11.214;2022-11-15T13:08:48;10.70;99.90
9987;DHT22;5033;46.310;11.214;2022-11-15T13:11:51;10.60;99.90
9987;DHT22;5033;46.310;11.214;2022-11-15T13:14:41;10.50;99.90
9987;DHT22;5033;46.310;11.214;2022-11-15T13:17:32;10.50;99.90
9987;DHT22;5033;46.310;11.214;2022-11-15T13:20:11;10.40;99.90
9987;DHT22;5033;46.310;11.214;2022-11-15T13:22:45;10.30;99.90
9987;DHT22;5033;46.310;11.214;2022-11-15T13:25:36;10.30;99.90
9987;DHT22;5033;46.310;11.214;2022-11-15T13:28:17;10.30;99.90
9987;DHT22;5033;46.310;11.214;2022-11-15T13:30:51;10.30;99.90
9987;DHT22;5033;46.310;11.214;2022-11-15T13:33:20;10.20;99.90
9987;DHT22;5033;46.310;11.214;2022-11-15T13:35:50;10.10;99.90
9987;DHT22;5033;46.310;11.214;2022-11-15T13:38:29;10.00;99.90
9987;DHT22;5033;46.310;11.214;2022-11-15T13:41:10;9.90;99.90
9987;DHT22;5033;46.310;11.214;2022-11-15T13:43:38;9.90;99.90
9987;DHT22;5033;46.310;11.214;2022-11-15T13:46:07;9.90;99.90
9987;DHT22;5033;46.310;11.214;2022-11-15T13:48:37;9.90;99.90
9987;DHT22;5033;46.310;11.214;2022-11-15T13:51:07;9.90;99.90
9987;DHT22;5033;46.310;11.214;2022-11-15T13:53:36;9.90;99.90
9987;DHT22;5033;46.310;11.214;2022-11-15T13:56:07;9.80;99.90
9987;DHT22;5033;46.310;11.214;2022-11-15T13:58:38;9.90;99.90
9987;DHT22;5033;46.310;11.214;2022-11-15T14:01:06;9.90;99.90
9987;DHT22;5033;46.310;11.214;2022-11-15T14:03:38;10.00;99.90
9987;DHT22;5033;46.310;11.214;2022-11-15T14:06:12;10.10;99.90
9987;DHT22;5033;46.310;11.214;2022-11-15T14:08:42;10.00;99.90
9987;DHT22;5033;46.310;11.214;2022-11-15T14:11:25;10.10;99.90
9987;DHT22;5033;46.310;11.214;2022-11-15T14:14:13;10.20;99.90
9987;DHT22;5033;46.310;11.214;2022-11-15T14:16:42;10.30;99.90
9987;DHT22;5033;46.310;11.214;2022-11-15T14:19:12;10.30;99.90
9987;DHT22;5033;46.310;11.214;2022-11-15T14:22:13;10.30;99.90
9987;DHT22;5033;46.310;11.214;2022-11-15T14:24:42;10.30;99.90
9987;DHT22;5033;46.310;11.214;2022-11-15T14:27:19;10.30;99.90
9987;DHT22;5033;46.310;11.214;2022-11-15T14:29:46;10.20;99.90
9987;DHT22;5033;46.310;11.214;2022-11-15T14:32:16;10.10;99.90
9987;DHT22;5033;46.310;11.214;2022-11-15T14:34:44;10.00;99.90
9987;DHT22;5033;46.310;11.214;2022-11-15T14:37:19;10.00;99.90
9987;DHT22;5033;46.310;11.214;2022-11-15T14:39:47;10.00;99.90
9987;DHT22;5033;46.310;11.214;2022-11-15T14:42:16;9.90;99.90
9987;DHT22;5033;46.310;11.214;2022-11-15T14:44:44;10.00;99.90
9987;DHT22;5033;46.310;11.214;2022-11-15T14:47:11;10.00;99.90
9987;DHT22;5033;46.310;11.214;2022-11-15T14:49:38;10.10;99.90
9987;DHT22;5033;46.310;11.214;2022-11-15T14:52:25;10.10;99.90
9987;DHT22;5033;46.310;11.214;2022-11-15T14:54:53;10.10;99.90
9987;DHT22;5033;46.310;11.214;2022-11-15T14:57:22;10.20;99.90
9987;DHT22;5033;46.310;11.214;2022-11-15T14:59:49;10.20;99.90
9987;DHT22;5033;46.310;11.214;2022-11-15T15:02:19;10.10;99.90
9987;DHT22;5033;46.310;11.214;2022-11-15T15:04:46;10.10;99.90
9987;DHT22;5033;46.310;11.214;2022-11-15T15:07:14;10.00;99.90
9987;DHT22;5033;46.310;11.214;2022-11-15T15:09:41;10.00;99.90
9987;DHT22;5033;46.310;11.214;2022-11-15T15:12:28;10.00;99.90
9987;DHT22;5033;46.310;11.214;2022-11-15T15:14:55;10.00;99.90
9987;DHT22;5033;46.310;11.214;2022-11-15T15:17:23;10.00;99.90
9987;DHT22;5033;46.310;11.214;2022-11-15T15:19:50;9.90;99.90
9987;DHT22;5033;46.310;11.214;2022-11-15T15:22:19;9.80;99.90
9987;DHT22;5033;46.310;11.214;2022-11-15T15:24:47;9.80;99.90
9987;DHT22;5033;46.310;11.214;2022-11-15T15:27:15;9.80;99.90
9987;DHT22;5033;46.310;11.214;2022-11-15T15:29:43;9.80;99.90
9987;DHT22;5033;46.310;11.214;2022-11-15T15:32:10;9.80;99.90
9987;DHT22;5033;46.310;11.214;2022-11-15T15:34:39;9.80;99.90
9987;DHT22;5033;46.310;11.214;2022-11-15T15:37:07;9.90;99.90
9987;DHT22;5033;46.310;11.214;2022-11-15T15:39:35;9.90;99.90
9987;DHT22;5033;46.310;11.214;2022-11-15T15:42:02;9.90;99.90
9987;DHT22;5033;46.310;11.214;2022-11-15T15:44:30;9.90;99.90
9987;DHT22;5033;46.310;11.214;2022-11-15T15:46:58;9.90;99.90
9987;DHT22;5033;46.310;11.214;2022-11-15T15:49:26;9.90;99.90
9987;DHT22;5033;46.310;11.214;2022-11-15T15:51:53;9.90;99.90
9987;DHT22;5033;46.310;11.214;2022-11-15T15:54:20;9.90;99.90
9987;DHT22;5033;46.310;11.214;2022-11-15T15:56:47;9.90;99.90
9987;DHT22;5033;46.310;11.214;2022-11-15T15:59:14;9.90;99.90
9987;DHT22;5033;46.310;11.214;2022-11-15T16:01:41;9.90;99.90
9987;DHT22;5033;46.310;11.214;2022-11-15T16:04:10;9.90;99.90
9987;DHT22;5033;46.310;11.214;2022-11-15T16:06:38;9.90;99.90
9987;DHT22;5033;46.310;11.214;2022-11-15T16:09:13;9.90;99.90
9987;DHT22;5033;46.310;11.214;2022-11-15T16:11:40;9.80;99.90
9987;DHT22;5033;46.310;11.214;2022-11-15T16:14:08;9.80;99.90
9987;DHT22;5033;46.310;11.214;2022-11-15T16:16:37;9.80;99.90
9987;DHT22;5033;46.310;11.214;2022-11-15T16:19:04;9.70;99.90
9987;DHT22;5033;46.310;11.214;2022-11-15T16:21:33;9.70;99.90
9987;DHT22;5033;46.310;11.214;2022-11-15T16:24:00;9.70;99.90
9987;DHT22;5033;46.310;11.214;2022-11-15T16:26:28;9.70;99.90
9987;DHT22;5033;46.310;11.214;2022-11-15T16:28:56;9.70;99.90
9987;DHT22;5033;46.310;11.214;2022-11-15T16:31:24;9.60;99.90
9987;DHT22;5033;46.310;11.214;2022-11-15T16:33:51;9.60;99.90